createdAt,value
2022-11-24T00:01:04.529Z,17.30
2022-11-24T00:02:36.351Z,14.10
2022-11-24T00:04:08.137Z,14.27
2022-11-24T00:05:39.852Z,17.20
2022-11-24T00:07:12.837Z,15.40
2022-11-24T00:08:46.342Z,14.48
2022-11-24T00:10:18.070Z,18.30
2022-11-24T00:11:49.735Z,15.90
2022-11-24T00:13:21.424Z,18.30
2022-11-24T00:14:53.035Z,20.67
2022-11-24T00:16:26.914Z,20.60
2022-11-24T00:17:58.607Z,15.45
2022-11-24T00:19:30.255Z,18.25
2022-11-24T00:21:02.389Z,22.73
2022-11-24T00:22:35.340Z,14.80
2022-11-24T00:24:07.117Z,19.48
2022-11-24T00:25:38.729Z,15.05
2022-11-24T00:27:10.496Z,15.93
2022-11-24T00:28:43.516Z,18.55
2022-11-24T00:30:15.634Z,17.92
2022-11-24T00:31:47.233Z,16.83
2022-11-24T00:33:18.820Z,15.40
2022-11-24T00:34:50.422Z,17.95
2022-11-24T00:36:23.900Z,16.60
2022-11-24T00:37:56.841Z,15.13
2022-11-24T00:39:28.530Z,11.95
2022-11-24T00:41:00.166Z,15.85
2022-11-24T00:42:31.767Z,16.23
2022-11-24T00:44:03.759Z,15.68
2022-11-24T00:45:35.363Z,15.13
2022-11-24T00:47:07.099Z,19.30
2022-11-24T00:48:38.943Z,19.63
2022-11-24T00:50:10.722Z,13.75
2022-11-24T00:51:42.399Z,19.50
2022-11-24T00:53:15.391Z,15.77
2022-11-24T00:54:47.033Z,15.23
2022-11-24T00:56:19.124Z,16.70
2022-11-24T00:57:51.240Z,12.45
2022-11-24T00:59:22.875Z,17.80
2022-11-24T01:00:54.605Z,15.40
2022-11-24T01:02:26.810Z,15.85
2022-11-24T01:04:01.225Z,18.15
2022-11-24T01:05:35.888Z,16.35
2022-11-24T01:07:07.650Z,17.02
2022-11-24T01:08:41.499Z,15.35
2022-11-24T01:10:13.137Z,13.98
2022-11-24T01:12:03.986Z,19.10
2022-11-24T01:13:35.764Z,15.57
2022-11-24T01:15:08.136Z,13.05
2022-11-24T01:16:39.797Z,18.00
2022-11-24T01:18:13.120Z,14.18
2022-11-24T01:19:47.111Z,20.95
2022-11-24T01:21:20.130Z,19.45
2022-11-24T01:22:51.801Z,17.73
2022-11-24T01:24:25.176Z,17.85
2022-11-24T01:25:56.781Z,15.80
2022-11-24T01:27:28.490Z,18.45
2022-11-24T01:29:00.096Z,12.93
2022-11-24T01:30:31.811Z,19.23
2022-11-24T01:32:03.756Z,15.98
2022-11-24T01:33:35.666Z,17.92
2022-11-24T01:35:08.608Z,12.77
2022-11-24T01:36:40.295Z,14.93
2022-11-24T01:38:11.929Z,13.45
2022-11-24T01:39:44.939Z,18.13
2022-11-24T01:41:19.219Z,14.63
2022-11-24T01:42:52.264Z,14.73
2022-11-24T01:44:26.227Z,15.45
2022-11-24T01:46:01.942Z,16.98
2022-11-24T01:47:36.337Z,16.67
2022-11-24T01:49:13.455Z,18.65
2022-11-24T01:50:46.343Z,16.95
2022-11-24T01:52:25.930Z,14.00
2022-11-24T01:54:00.744Z,15.23
2022-11-24T01:55:36.975Z,17.92
2022-11-24T01:57:16.990Z,17.15
2022-11-24T01:58:50.309Z,13.30
2022-11-24T02:00:22.448Z,18.90
2022-11-24T02:01:56.759Z,17.08
2022-11-24T02:03:32.783Z,14.43
2022-11-24T02:05:10.104Z,18.80
2022-11-24T02:06:45.751Z,17.70
2022-11-24T02:08:22.833Z,17.15
2022-11-24T02:09:57.841Z,18.30
2022-11-24T02:11:34.794Z,20.10
2022-11-24T02:13:06.507Z,19.33
2022-11-24T02:14:40.358Z,14.80
2022-11-24T02:16:12.728Z,17.60
2022-11-24T02:17:44.783Z,17.83
2022-11-24T02:19:25.361Z,15.60
2022-11-24T02:20:57.261Z,12.30
2022-11-24T02:22:37.788Z,18.33
2022-11-24T02:24:16.174Z,22.25
2022-11-24T02:25:56.165Z,21.05
2022-11-24T02:27:29.164Z,14.13
2022-11-24T02:29:00.923Z,20.55
2022-11-24T02:30:32.835Z,14.32
2022-11-24T02:32:08.123Z,16.90
2022-11-24T02:33:40.638Z,18.42
2022-11-24T02:35:13.585Z,21.17
2022-11-24T02:36:45.184Z,15.90
2022-11-24T02:38:16.824Z,18.20
2022-11-24T02:39:48.409Z,18.00
2022-11-24T02:41:23.628Z,18.67
2022-11-24T02:42:59.189Z,18.48
2022-11-24T02:44:35.237Z,18.42
2022-11-24T02:46:07.264Z,17.85
2022-11-24T02:47:38.903Z,15.77
2022-11-24T02:49:10.486Z,15.43
2022-11-24T02:50:42.198Z,16.60
2022-11-24T02:52:13.931Z,22.05
2022-11-24T02:53:45.783Z,17.70
2022-11-24T02:55:17.559Z,18.38
2022-11-24T02:56:49.169Z,19.05
2022-11-24T02:58:22.139Z,17.40
2022-11-24T02:59:53.735Z,21.15
2022-11-24T03:01:25.451Z,21.83
2022-11-24T03:02:57.185Z,19.88
2022-11-24T03:04:28.910Z,14.60
2022-11-24T03:06:00.567Z,16.92
2022-11-24T03:07:32.219Z,17.58
2022-11-24T03:09:04.112Z,23.52
2022-11-24T03:10:35.834Z,19.30
2022-11-24T03:12:07.788Z,17.95
2022-11-24T03:13:40.777Z,19.13
2022-11-24T03:15:12.373Z,26.92
2022-11-24T03:16:43.999Z,16.50
2022-11-24T03:18:15.619Z,20.13
2022-11-24T03:19:47.253Z,15.80
2022-11-24T03:21:19.228Z,15.00
2022-11-24T03:22:50.952Z,15.35
2022-11-24T03:24:22.538Z,20.08
2022-11-24T03:25:54.939Z,20.60
2022-11-24T03:27:26.656Z,16.38
2022-11-24T03:28:59.785Z,20.40
2022-11-24T03:30:31.425Z,18.58
2022-11-24T03:32:03.200Z,19.23
2022-11-24T03:33:35.120Z,20.58
2022-11-24T03:35:07.632Z,16.92
2022-11-24T03:36:39.290Z,20.05
2022-11-24T03:38:10.934Z,18.92
2022-11-24T03:39:42.674Z,20.13
2022-11-24T03:41:14.344Z,16.55
2022-11-24T03:42:45.991Z,17.95
2022-11-24T03:44:18.947Z,20.55
2022-11-24T03:45:50.615Z,21.55
2022-11-24T03:47:22.293Z,18.50
2022-11-24T03:48:53.925Z,19.17
2022-11-24T03:50:25.531Z,20.95
2022-11-24T03:51:57.162Z,20.08
2022-11-24T03:53:30.936Z,16.33
2022-11-24T03:55:02.561Z,18.05
2022-11-24T03:56:34.146Z,18.90
2022-11-24T03:58:05.723Z,15.65
2022-11-24T03:59:39.130Z,18.17
2022-11-24T04:01:10.959Z,20.15
2022-11-24T04:02:42.618Z,17.30
2022-11-24T04:04:14.582Z,20.73
2022-11-24T04:05:46.509Z,15.35
2022-11-24T04:07:18.479Z,20.45
2022-11-24T04:08:50.100Z,20.30
2022-11-24T04:10:21.695Z,18.25
2022-11-24T04:12:11.948Z,24.45
2022-11-24T04:13:47.354Z,17.60
2022-11-24T04:15:20.673Z,19.88
2022-11-24T04:16:52.294Z,16.58
2022-11-24T04:18:23.982Z,19.95
2022-11-24T04:19:55.729Z,16.88
2022-11-24T04:21:27.379Z,20.25
2022-11-24T04:22:59.068Z,19.10
2022-11-24T04:24:30.871Z,16.05
2022-11-24T04:26:02.625Z,20.48
2022-11-24T04:27:34.885Z,20.75
2022-11-24T04:29:06.528Z,13.48
2022-11-24T04:30:44.387Z,20.38
2022-11-24T04:32:16.079Z,22.38
2022-11-24T04:33:47.652Z,16.33
2022-11-24T04:35:20.079Z,18.40
2022-11-24T04:36:51.687Z,18.65
2022-11-24T04:39:23.808Z,19.23
2022-11-24T04:40:15.024Z,18.83
2022-11-24T04:41:47.520Z,24.48
2022-11-24T04:43:20.003Z,18.48
2022-11-24T04:44:51.822Z,22.80
2022-11-24T04:46:24.803Z,20.65
2022-11-24T04:47:56.412Z,23.15
2022-11-24T04:49:28.230Z,20.55
2022-11-24T04:51:04.172Z,21.15
2022-11-24T04:52:35.800Z,26.15
2022-11-24T04:54:09.409Z,19.75
2022-11-24T04:55:41.299Z,24.25
2022-11-24T04:57:15.883Z,19.42
2022-11-24T04:58:47.939Z,26.73
2022-11-24T05:00:19.824Z,27.02
2022-11-24T05:01:52.854Z,20.13
2022-11-24T05:03:24.473Z,22.42
2022-11-24T05:04:56.141Z,18.83
2022-11-24T05:06:27.841Z,18.27
2022-11-24T05:07:59.916Z,22.55
2022-11-24T05:09:54.950Z,16.65
2022-11-24T05:11:23.290Z,22.55
2022-11-24T05:12:56.534Z,20.58
2022-11-24T05:14:28.287Z,24.42
2022-11-24T05:16:01.248Z,23.85
2022-11-24T05:17:36.123Z,21.20
2022-11-24T05:19:08.412Z,20.25
2022-11-24T05:20:40.014Z,20.35
2022-11-24T05:22:11.671Z,16.75
2022-11-24T05:23:43.312Z,18.50
2022-11-24T05:25:15.435Z,22.70
2022-11-24T05:26:47.097Z,21.55
2022-11-24T05:28:19.453Z,20.23
2022-11-24T05:29:51.057Z,18.50
2022-11-24T05:31:22.856Z,18.00
2022-11-24T05:32:55.891Z,19.42
2022-11-24T05:34:28.331Z,25.35
2022-11-24T05:36:01.441Z,23.23
2022-11-24T05:37:33.052Z,20.83
2022-11-24T05:39:04.669Z,22.50
2022-11-24T05:40:36.491Z,17.45
2022-11-24T05:42:26.768Z,18.80
2022-11-24T05:43:58.465Z,23.40
2022-11-24T05:45:30.568Z,16.98
2022-11-24T05:47:02.239Z,16.35
2022-11-24T05:48:35.277Z,21.52
2022-11-24T05:50:07.839Z,21.02
2022-11-24T05:51:39.523Z,19.20
2022-11-24T05:53:13.199Z,20.85
2022-11-24T05:54:44.850Z,17.60
2022-11-24T05:56:16.603Z,18.08
2022-11-24T05:57:48.382Z,20.23
2022-11-24T05:59:20.097Z,16.65
2022-11-24T06:00:51.725Z,23.92
2022-11-24T06:02:23.508Z,16.85
2022-11-24T06:03:56.610Z,22.17
2022-11-24T06:05:29.828Z,19.25
2022-11-24T06:07:01.790Z,18.65
2022-11-24T06:08:34.130Z,17.45
2022-11-24T06:10:06.123Z,19.20
2022-11-24T06:11:37.819Z,15.30
2022-11-24T06:13:09.569Z,18.20
2022-11-24T06:14:41.807Z,19.40
2022-11-24T06:16:13.593Z,17.20
2022-11-24T06:17:52.034Z,19.23
2022-11-24T06:19:25.342Z,21.55
2022-11-24T06:21:10.267Z,14.30
2022-11-24T06:22:42.748Z,15.80
2022-11-24T06:24:14.803Z,14.07
2022-11-24T06:25:51.421Z,13.73
2022-11-24T06:27:23.610Z,13.73
2022-11-24T06:28:55.621Z,15.30
2022-11-24T06:30:27.235Z,13.88
2022-11-24T06:31:58.943Z,14.68
2022-11-24T06:33:32.248Z,12.35
2022-11-24T06:35:06.478Z,13.23
2022-11-24T06:36:38.313Z,11.82
2022-11-24T06:38:10.659Z,12.48
2022-11-24T06:39:42.573Z,10.85
2022-11-24T06:41:16.242Z,13.40
2022-11-24T06:42:51.321Z,12.20
2022-11-24T06:44:22.948Z,11.48
2022-11-24T06:45:54.612Z,12.30
2022-11-24T06:47:26.340Z,12.65
2022-11-24T06:48:59.611Z,15.00
2022-11-24T06:50:33.863Z,9.30
2022-11-24T06:52:05.609Z,9.07
2022-11-24T06:53:38.715Z,9.05
2022-11-24T06:55:10.459Z,11.32
2022-11-24T06:56:42.107Z,10.35
2022-11-24T06:58:14.066Z,9.90
2022-11-24T06:59:45.671Z,5.45
2022-11-24T07:01:18.737Z,12.00
2022-11-24T07:02:50.606Z,12.15
2022-11-24T07:04:22.271Z,8.50
2022-11-24T07:05:58.064Z,7.85
2022-11-24T07:07:29.729Z,6.03
2022-11-24T07:09:01.479Z,8.45
2022-11-24T07:10:33.457Z,11.32
2022-11-24T07:12:06.025Z,7.18
2022-11-24T07:13:37.759Z,6.47
2022-11-24T07:15:10.262Z,6.57
2022-11-24T07:16:42.352Z,7.05
2022-11-24T07:18:14.320Z,5.88
2022-11-24T07:19:46.209Z,6.90
2022-11-24T07:21:20.290Z,7.05
2022-11-24T07:22:56.072Z,8.20
2022-11-24T07:24:27.761Z,6.57
2022-11-24T07:26:06.533Z,5.30
2022-11-24T07:27:38.680Z,6.85
2022-11-24T07:29:10.391Z,5.05
2022-11-24T07:30:42.038Z,7.90
2022-11-24T07:32:13.753Z,5.47
2022-11-24T07:33:48.308Z,7.03
2022-11-24T07:35:19.964Z,5.20
2022-11-24T07:36:53.045Z,6.28
2022-11-24T07:38:24.653Z,7.70
2022-11-24T07:39:56.277Z,7.20
2022-11-24T07:41:27.942Z,7.05
2022-11-24T07:43:00.348Z,5.63
2022-11-24T07:44:32.140Z,8.60
2022-11-24T07:46:06.375Z,4.50
2022-11-24T07:47:39.452Z,8.25
2022-11-24T07:49:11.098Z,11.30
2022-11-24T07:50:42.708Z,10.82
2022-11-24T07:52:15.676Z,12.52
2022-11-24T07:53:47.378Z,6.78
2022-11-24T07:55:19.143Z,9.23
2022-11-24T07:56:50.807Z,9.73
2022-11-24T07:58:22.971Z,11.63
2022-11-24T07:59:54.683Z,8.60
2022-11-24T08:01:26.395Z,7.57
2022-11-24T08:02:58.051Z,7.63
2022-11-24T08:04:29.599Z,8.27
2022-11-24T08:06:39.878Z,10.30
2022-11-24T08:07:54.533Z,12.25
2022-11-24T08:09:26.237Z,8.52
2022-11-24T08:10:57.838Z,8.63
2022-11-24T08:12:29.605Z,9.00
2022-11-24T08:14:01.257Z,8.73
2022-11-24T08:15:32.912Z,7.35
2022-11-24T08:17:04.631Z,9.30
2022-11-24T08:18:37.290Z,7.28
2022-11-24T08:20:10.402Z,7.00
2022-11-24T08:21:42.061Z,9.82
2022-11-24T08:23:15.249Z,7.25
2022-11-24T08:24:48.684Z,13.82
2022-11-24T08:26:20.379Z,9.98
2022-11-24T08:27:52.074Z,10.88
2022-11-24T08:29:28.380Z,11.13
2022-11-24T08:31:05.071Z,11.45
2022-11-24T08:32:36.755Z,14.45
2022-11-24T08:34:08.533Z,12.43
2022-11-24T08:35:40.364Z,10.95
2022-11-24T08:37:12.388Z,12.65
2022-11-24T08:38:46.199Z,11.95
2022-11-24T08:40:17.953Z,11.95
2022-11-24T08:41:49.573Z,13.73
2022-11-24T08:43:21.161Z,12.27
2022-11-24T08:44:58.820Z,8.43
2022-11-24T08:46:30.821Z,9.32
2022-11-24T08:48:02.493Z,13.65
2022-11-24T08:49:34.236Z,12.65
2022-11-24T08:51:08.044Z,10.20
2022-11-24T08:52:39.743Z,12.70
2022-11-24T08:54:15.231Z,12.10
2022-11-24T08:55:46.882Z,15.35
2022-11-24T08:57:21.738Z,11.77
2022-11-24T08:58:54.131Z,14.57
2022-11-24T09:00:25.880Z,13.55
2022-11-24T09:01:57.543Z,14.52
2022-11-24T09:03:29.336Z,10.48
2022-11-24T09:05:00.982Z,12.45
2022-11-24T09:06:32.624Z,11.93
2022-11-24T09:08:04.712Z,12.23
2022-11-24T09:09:37.720Z,14.90
2022-11-24T09:11:11.192Z,12.90
2022-11-24T09:12:44.130Z,10.35
2022-11-24T09:14:15.794Z,13.18
2022-11-24T09:15:47.425Z,13.65
2022-11-24T09:17:19.003Z,12.02
2022-11-24T09:18:55.095Z,12.77
2022-11-24T09:20:26.685Z,12.85
2022-11-24T09:21:58.314Z,11.95
2022-11-24T09:23:29.945Z,11.98
2022-11-24T09:25:02.969Z,11.80
2022-11-24T09:26:36.816Z,11.63
2022-11-24T09:28:08.458Z,12.52
2022-11-24T09:29:40.116Z,9.85
2022-11-24T09:31:13.767Z,17.13
2022-11-24T09:32:45.470Z,13.55
2022-11-24T09:34:17.310Z,11.93
2022-11-24T09:35:49.739Z,9.30
2022-11-24T09:37:21.394Z,14.40
2022-11-24T09:38:53.302Z,18.67
2022-11-24T09:40:27.032Z,11.88
2022-11-24T09:42:08.261Z,14.00
2022-11-24T09:43:45.920Z,11.85
2022-11-24T09:45:57.100Z,12.07
2022-11-24T09:47:28.037Z,13.77
2022-11-24T09:49:04.213Z,12.27
2022-11-24T09:50:38.643Z,15.07
2022-11-24T09:52:16.687Z,12.50
2022-11-24T09:53:55.017Z,12.43
2022-11-24T09:55:39.073Z,11.50
2022-11-24T09:57:12.529Z,10.35
2022-11-24T09:58:48.290Z,11.10
2022-11-24T10:00:20.173Z,16.75
2022-11-24T10:01:52.571Z,17.02
2022-11-24T10:03:29.511Z,14.13
2022-11-24T10:05:01.274Z,14.30
2022-11-24T10:06:39.400Z,14.88
2022-11-24T10:08:23.759Z,12.25
2022-11-24T10:10:03.293Z,14.65
2022-11-24T10:11:42.921Z,14.25
2022-11-24T10:13:33.244Z,13.60
2022-11-24T10:15:24.424Z,10.75
2022-11-24T10:17:07.336Z,12.40
2022-11-24T10:18:56.736Z,14.32
2022-11-24T10:20:40.477Z,13.38
2022-11-24T10:22:28.969Z,15.25
2022-11-24T10:24:35.484Z,7.90
2022-11-24T10:26:13.071Z,11.05
2022-11-24T10:27:50.264Z,10.65
2022-11-24T10:29:27.041Z,15.60
2022-11-24T10:31:13.307Z,11.50
2022-11-24T10:32:47.860Z,17.52
2022-11-24T10:34:25.031Z,11.77
2022-11-24T10:36:04.064Z,14.05
2022-11-24T10:37:40.604Z,15.82
2022-11-24T10:39:19.845Z,13.18
2022-11-24T10:40:58.244Z,13.23
2022-11-24T10:42:31.923Z,11.95
2022-11-24T10:44:05.010Z,13.30
2022-11-24T10:45:39.189Z,12.35
2022-11-24T10:47:18.598Z,15.15
2022-11-24T10:48:53.552Z,10.20
2022-11-24T10:50:27.383Z,12.98
2022-11-24T10:52:05.911Z,14.77
2022-11-24T10:53:41.930Z,14.68
2022-11-24T10:55:13.655Z,13.48
2022-11-24T10:56:47.193Z,15.20
2022-11-24T10:58:23.649Z,12.93
2022-11-24T10:59:56.886Z,13.70
2022-11-24T11:01:32.814Z,14.38
2022-11-24T11:03:20.900Z,13.73
2022-11-24T11:04:52.685Z,13.60
2022-11-24T11:06:26.646Z,16.08
2022-11-24T11:08:17.096Z,18.40
2022-11-24T11:09:49.375Z,13.90
2022-11-24T11:11:27.339Z,15.48
2022-11-24T11:12:59.013Z,14.10
2022-11-24T11:14:32.410Z,15.55
2022-11-24T11:16:24.158Z,15.23
2022-11-24T11:18:00.895Z,11.63
2022-11-24T11:19:55.473Z,16.33
2022-11-24T11:21:33.145Z,14.15
2022-11-24T11:23:16.702Z,18.55
2022-11-24T11:25:03.213Z,12.45
2022-11-24T11:26:37.727Z,14.68
2022-11-24T11:28:29.582Z,15.27
2022-11-24T11:34:23.200Z,14.18
2022-11-24T11:36:01.487Z,17.23
2022-11-24T11:37:33.711Z,19.35
2022-11-24T11:39:05.871Z,17.42
2022-11-24T11:40:37.823Z,14.32
2022-11-24T11:42:45.284Z,14.52
2022-11-24T11:44:21.492Z,11.85
2022-11-24T11:46:01.490Z,19.10
2022-11-24T11:49:12.198Z,15.05
2022-11-24T11:53:00.440Z,14.25
2022-11-24T11:54:50.011Z,13.43
2022-11-24T11:56:25.904Z,16.50
2022-11-24T11:58:10.133Z,17.23
2022-11-24T12:00:01.892Z,17.73
2022-11-24T12:01:46.852Z,12.10
2022-11-24T12:03:57.925Z,13.65
2022-11-24T12:05:34.860Z,20.15
2022-11-24T12:07:33.082Z,17.02
2022-11-24T12:09:21.325Z,15.50
2022-11-24T12:11:02.407Z,14.00
2022-11-24T12:12:46.941Z,16.48
2022-11-24T12:14:29.605Z,14.80
2022-11-24T12:16:09.826Z,13.90
2022-11-24T12:17:48.037Z,13.23
2022-11-24T12:19:34.182Z,12.55
2022-11-24T12:21:17.950Z,12.13
2022-11-24T12:23:02.867Z,16.95
2022-11-24T12:24:45.025Z,15.10
2022-11-24T12:26:26.921Z,17.50
2022-11-24T12:28:13.092Z,10.93
2022-11-24T12:30:12.716Z,12.70
2022-11-24T12:31:57.076Z,15.15
2022-11-24T12:33:49.138Z,17.38
2022-11-24T12:35:28.675Z,16.33
2022-11-24T12:37:18.560Z,16.85
2022-11-24T12:38:58.291Z,17.27
2022-11-24T12:40:40.901Z,13.50
2022-11-24T12:42:30.108Z,13.27
2022-11-24T12:44:02.869Z,12.27
2022-11-24T12:45:42.968Z,13.98
2022-11-24T12:48:59.674Z,12.82
2022-11-24T12:50:37.456Z,12.75
2022-11-24T12:52:19.456Z,13.43
2022-11-24T12:53:52.949Z,15.30
2022-11-24T12:55:25.572Z,19.27
2022-11-24T12:57:04.676Z,16.88
2022-11-24T12:58:45.653Z,19.60
2022-11-24T13:00:21.879Z,15.85
2022-11-24T13:02:04.536Z,13.20
2022-11-24T13:03:45.149Z,17.13
2022-11-24T13:05:23.192Z,12.02
2022-11-24T13:07:01.422Z,17.60
2022-11-24T13:08:36.651Z,16.40
2022-11-24T13:10:54.133Z,15.15
2022-11-24T13:12:22.094Z,13.98
2022-11-24T13:14:00.680Z,14.95
2022-11-24T13:16:07.051Z,14.48
2022-11-24T13:18:02.853Z,12.90
2022-11-24T13:19:38.034Z,14.60
2022-11-24T13:21:42.988Z,12.27
2022-11-24T13:23:25.259Z,13.02
2022-11-24T13:25:16.251Z,18.85
2022-11-24T13:26:50.422Z,14.57
2022-11-24T13:29:03.535Z,17.77
2022-11-24T13:31:08.003Z,15.75
2022-11-24T13:33:00.203Z,16.33
2022-11-24T13:34:57.163Z,14.02
2022-11-24T13:36:33.996Z,15.75
2022-11-24T13:38:39.935Z,19.00
2022-11-24T13:40:45.842Z,13.05
2022-11-24T13:42:44.088Z,13.65
2022-11-24T13:44:25.287Z,16.27
2022-11-24T13:45:57.073Z,13.95
2022-11-24T13:47:34.434Z,12.85
2022-11-24T13:49:14.224Z,19.52
2022-11-24T13:51:17.201Z,17.42
2022-11-24T13:52:52.223Z,12.98
2022-11-24T13:54:27.320Z,14.20
2022-11-24T13:56:00.832Z,13.30
2022-11-24T13:57:34.159Z,17.52
2022-11-24T13:59:17.245Z,15.18
2022-11-24T14:01:19.438Z,14.70
2022-11-24T14:02:53.855Z,16.95
2022-11-24T14:04:31.103Z,14.75
2022-11-24T14:06:04.573Z,17.45
2022-11-24T14:07:36.341Z,16.55
2022-11-24T14:09:28.350Z,17.45
2022-11-24T14:11:01.686Z,20.98
2022-11-24T14:12:33.989Z,15.85
2022-11-24T14:14:16.039Z,17.42
2022-11-24T14:15:59.448Z,17.33
2022-11-24T14:17:31.421Z,16.77
2022-11-24T14:19:09.807Z,19.10
2022-11-24T14:20:42.874Z,16.45
2022-11-24T14:22:17.927Z,14.60
2022-11-24T14:23:53.174Z,13.57
2022-11-24T14:25:29.966Z,15.63
2022-11-24T14:27:01.692Z,16.88
2022-11-24T14:28:33.393Z,17.23
2022-11-24T14:30:18.743Z,19.55
2022-11-24T14:31:53.572Z,16.40
2022-11-24T14:33:25.607Z,16.77
2022-11-24T14:34:57.421Z,16.02
2022-11-24T14:36:30.519Z,13.75
2022-11-24T14:38:04.084Z,13.23
2022-11-24T14:39:40.982Z,15.95
2022-11-24T14:41:25.337Z,15.05
2022-11-24T14:42:57.073Z,19.42
2022-11-24T14:44:31.609Z,13.40
2022-11-24T14:46:05.936Z,19.02
2022-11-24T14:47:45.092Z,17.65
2022-11-24T14:49:20.016Z,14.67
2022-11-24T14:50:51.910Z,18.90
2022-11-24T14:52:26.017Z,15.05
2022-11-24T14:54:01.723Z,16.75
2022-11-24T14:55:39.072Z,18.05
2022-11-24T14:57:24.274Z,16.60
2022-11-24T14:58:57.377Z,16.77
2022-11-24T15:00:31.567Z,16.77
2022-11-24T15:02:24.105Z,19.35
2022-11-24T15:04:17.931Z,17.15
2022-11-24T15:06:00.947Z,14.23
2022-11-24T15:07:37.257Z,17.00
2022-11-24T15:09:25.372Z,17.80
2022-11-24T15:11:00.357Z,16.65
2022-11-24T15:12:36.436Z,15.10
2022-11-24T15:14:31.514Z,20.75
2022-11-24T15:16:06.624Z,15.25
2022-11-24T15:17:46.302Z,15.30
2022-11-24T15:19:18.091Z,12.23
2022-11-24T15:20:49.811Z,17.42
2022-11-24T15:22:35.751Z,20.35
2022-11-24T15:24:16.915Z,17.60
2022-11-24T15:25:49.815Z,18.35
2022-11-24T15:27:21.485Z,15.98
2022-11-24T15:28:53.163Z,17.45
2022-11-24T15:30:25.402Z,16.80
2022-11-24T15:31:58.629Z,22.98
2022-11-24T15:33:31.074Z,18.30
2022-11-24T15:35:02.885Z,20.83
2022-11-24T15:36:34.579Z,16.77
2022-11-24T15:38:07.661Z,16.23
2022-11-24T15:39:39.373Z,24.55
2022-11-24T15:41:19.047Z,17.05
2022-11-24T15:42:52.327Z,18.70
2022-11-24T15:44:23.992Z,16.77
2022-11-24T15:45:55.900Z,19.63
2022-11-24T15:47:27.551Z,14.30
2022-11-24T15:48:59.225Z,22.55
2022-11-24T15:50:30.911Z,17.13
2022-11-24T15:52:02.603Z,15.00
2022-11-24T15:53:38.945Z,18.45
2022-11-24T15:55:18.237Z,19.52
2022-11-24T15:56:49.899Z,17.02
2022-11-24T15:58:21.556Z,16.15
2022-11-24T15:59:54.825Z,21.23
2022-11-24T16:01:34.328Z,18.92
2022-11-24T16:03:38.464Z,21.38
2022-11-24T16:04:57.948Z,16.02
2022-11-24T16:06:29.859Z,18.35
2022-11-24T16:08:01.747Z,15.13
2022-11-24T16:09:34.837Z,13.80
2022-11-24T16:11:06.682Z,16.23
2022-11-24T16:12:38.328Z,19.55
2022-11-24T16:14:10.016Z,19.35
2022-11-24T16:15:41.763Z,18.35
2022-11-24T16:17:13.438Z,16.70
2022-11-24T16:18:45.462Z,21.50
2022-11-24T16:20:17.779Z,16.23
2022-11-24T16:21:49.676Z,18.60
2022-11-24T16:23:21.439Z,16.42
2022-11-24T16:24:54.502Z,17.58
2022-11-24T16:26:26.257Z,16.77
2022-11-24T16:27:58.390Z,22.55
2022-11-24T16:29:34.011Z,15.38
2022-11-24T16:31:08.691Z,17.33
2022-11-24T16:32:40.505Z,20.42
2022-11-24T16:34:12.473Z,16.83
2022-11-24T16:35:46.816Z,18.00
2022-11-24T16:37:18.857Z,16.63
2022-11-24T16:38:50.668Z,17.35
2022-11-24T16:40:23.766Z,20.58
2022-11-24T16:41:55.382Z,18.23
2022-11-24T16:43:28.615Z,18.65
2022-11-24T16:45:00.280Z,16.02
2022-11-24T16:46:32.275Z,13.07
2022-11-24T16:48:04.273Z,18.95
2022-11-24T16:49:36.112Z,16.40
2022-11-24T16:51:10.009Z,15.80
2022-11-24T16:52:41.762Z,14.77
2022-11-24T16:54:13.406Z,16.67
2022-11-24T16:55:56.657Z,15.93
2022-11-24T16:57:28.357Z,11.68
2022-11-24T16:59:00.135Z,16.48
2022-11-24T17:00:31.853Z,12.05
2022-11-24T17:02:03.870Z,18.38
2022-11-24T17:03:38.216Z,19.42
2022-11-24T17:05:09.982Z,17.83
2022-11-24T17:06:41.793Z,15.32
2022-11-24T17:08:13.390Z,15.25
2022-11-24T17:09:45.253Z,19.88
2022-11-24T17:11:21.992Z,16.85
2022-11-24T17:12:53.678Z,17.17
2022-11-24T17:14:25.701Z,13.82
2022-11-24T17:15:57.324Z,19.50
2022-11-24T17:17:28.949Z,16.17
2022-11-24T17:19:00.629Z,16.77
2022-11-24T17:20:32.415Z,19.05
2022-11-24T17:22:04.173Z,17.00
2022-11-24T17:23:35.897Z,19.38
2022-11-24T17:25:08.745Z,15.23
2022-11-24T17:26:46.084Z,14.15
2022-11-24T17:29:52.156Z,12.57
2022-11-24T17:31:25.756Z,18.55
2022-11-24T17:32:57.440Z,19.08
2022-11-24T17:34:29.110Z,17.52
2022-11-24T17:36:04.757Z,19.10
2022-11-24T17:37:37.006Z,14.43
2022-11-24T17:39:09.452Z,19.33
2022-11-24T17:40:46.495Z,18.05
2022-11-24T17:42:19.513Z,16.90
2022-11-24T17:43:51.755Z,15.82
2022-11-24T17:45:23.384Z,18.42
2022-11-24T17:46:55.366Z,18.15
2022-11-24T17:48:27.767Z,16.83
2022-11-24T17:49:59.739Z,16.65
2022-11-24T17:51:31.398Z,21.33
2022-11-24T17:53:03.020Z,15.10
2022-11-24T17:54:49.999Z,17.00
2022-11-24T17:56:23.751Z,18.67
2022-11-24T17:57:57.325Z,16.13
2022-11-24T17:59:29.030Z,17.75
2022-11-24T18:01:01.597Z,16.58
2022-11-24T18:02:33.668Z,15.50
2022-11-24T18:04:05.416Z,14.65
2022-11-24T18:05:37.548Z,22.83
2022-11-24T18:07:09.289Z,17.65
2022-11-24T18:08:42.952Z,16.00
2022-11-24T18:10:14.775Z,13.52
2022-11-24T18:11:47.745Z,19.63
2022-11-24T18:13:41.138Z,13.60
2022-11-24T18:15:12.462Z,18.00
2022-11-24T18:16:44.139Z,17.52
2022-11-24T18:18:15.782Z,16.02
2022-11-24T18:19:47.394Z,12.02
2022-11-24T18:21:19.212Z,13.93
2022-11-24T18:23:05.006Z,17.80
2022-11-24T18:24:38.055Z,20.88
2022-11-24T18:26:12.526Z,17.50
2022-11-24T18:27:44.262Z,12.45
2022-11-24T18:29:17.295Z,15.07
2022-11-24T18:30:49.331Z,14.02
2022-11-24T18:32:21.032Z,12.90
2022-11-24T18:33:52.739Z,16.00
2022-11-24T18:35:24.514Z,14.25
2022-11-24T18:36:56.155Z,17.40
2022-11-24T18:38:28.719Z,14.52
2022-11-24T18:40:00.422Z,14.70
2022-11-24T18:41:32.407Z,14.48
2022-11-24T18:43:04.187Z,12.70
2022-11-24T18:44:37.573Z,13.85
2022-11-24T18:46:11.782Z,15.95
2022-11-24T18:47:43.424Z,11.68
2022-11-24T18:49:15.049Z,12.68
2022-11-24T18:50:50.466Z,13.15
2022-11-24T18:52:22.126Z,17.25
2022-11-24T18:53:54.558Z,16.35
2022-11-24T18:55:26.264Z,15.38
2022-11-24T18:57:03.090Z,17.10
2022-11-24T18:58:35.554Z,15.43
2022-11-24T19:00:10.921Z,15.20
2022-11-24T19:01:42.663Z,14.57
2022-11-24T19:03:14.445Z,13.48
2022-11-24T19:04:46.055Z,16.15
2022-11-24T19:06:19.876Z,18.48
2022-11-24T19:07:51.591Z,15.70
2022-11-24T19:09:25.341Z,14.60
2022-11-24T19:10:57.189Z,15.55
2022-11-24T19:12:28.863Z,14.98
2022-11-24T19:14:00.953Z,16.40
2022-11-24T19:15:34.620Z,15.30
2022-11-24T19:17:06.282Z,13.88
2022-11-24T19:18:38.281Z,15.60
2022-11-24T19:20:10.760Z,13.15
2022-11-24T19:21:42.495Z,14.73
2022-11-24T19:23:14.236Z,14.35
2022-11-24T19:24:46.573Z,13.23
2022-11-24T19:26:18.752Z,14.13
2022-11-24T19:27:50.478Z,17.60
2022-11-24T19:29:22.271Z,15.77
2022-11-24T19:30:59.808Z,14.15
2022-11-24T19:32:32.193Z,19.02
2022-11-24T19:34:05.770Z,13.48
2022-11-24T19:35:37.416Z,15.43
2022-11-24T19:37:09.099Z,19.88
2022-11-24T19:38:42.367Z,14.45
2022-11-24T19:40:14.736Z,18.27
2022-11-24T19:41:46.433Z,14.90
2022-11-24T19:43:18.033Z,15.27
2022-11-24T19:44:54.751Z,13.43
2022-11-24T19:46:30.152Z,14.55
2022-11-24T19:48:01.835Z,13.05
2022-11-24T19:49:33.442Z,17.00
2022-11-24T19:51:07.187Z,16.02
2022-11-24T19:52:38.955Z,18.48
2022-11-24T19:54:12.913Z,18.80
2022-11-24T19:55:44.552Z,13.60
2022-11-24T19:57:16.168Z,16.52
2022-11-24T19:58:49.206Z,19.17
2022-11-24T20:00:21.180Z,17.23
2022-11-24T20:01:54.499Z,16.05
2022-11-24T20:03:26.302Z,14.27
2022-11-24T20:04:57.996Z,20.60
2022-11-24T20:06:31.262Z,17.30
2022-11-24T20:08:03.004Z,13.30
2022-11-24T20:09:34.750Z,16.58
2022-11-24T20:11:08.449Z,16.15
2022-11-24T20:12:40.059Z,20.00
2022-11-24T20:14:12.926Z,15.27
2022-11-24T20:15:44.586Z,18.83
2022-11-24T20:17:17.621Z,14.32
2022-11-24T20:18:49.332Z,17.38
2022-11-24T20:20:20.978Z,14.02
2022-11-24T20:21:53.005Z,16.98
2022-11-24T20:23:24.645Z,12.63
2022-11-24T20:24:56.365Z,14.77
2022-11-24T20:26:31.025Z,16.13
2022-11-24T20:28:02.686Z,16.50
2022-11-24T20:29:34.342Z,17.02
2022-11-24T20:31:07.672Z,19.38
2022-11-24T20:32:40.728Z,17.75
2022-11-24T20:34:13.002Z,17.95
2022-11-24T20:35:44.646Z,14.90
2022-11-24T20:37:16.313Z,17.60
2022-11-24T20:38:49.479Z,14.13